createdAt,value
2024-02-29T00:01:06.850Z,-2.38
2024-02-29T00:03:35.396Z,-2.43
2024-02-29T00:06:04.031Z,-2.40
2024-02-29T00:08:32.687Z,-2.35
2024-02-29T00:11:01.147Z,-2.37
2024-02-29T00:13:30.921Z,-2.48
2024-02-29T00:15:59.373Z,-2.40
2024-02-29T00:18:27.861Z,-2.37
2024-02-29T00:20:56.273Z,-2.43
2024-02-29T00:23:24.681Z,-2.45
2024-02-29T00:25:53.022Z,-2.44
2024-02-29T00:28:21.356Z,-2.48
2024-02-29T00:30:51.118Z,-2.45
2024-02-29T00:33:19.726Z,-2.41
2024-02-29T00:35:49.668Z,-2.48
2024-02-29T00:38:18.337Z,-2.53
2024-02-29T00:40:46.783Z,-2.52
2024-02-29T00:43:16.003Z,-2.53
2024-02-29T00:45:44.711Z,-2.58
2024-02-29T00:48:14.456Z,-2.55
2024-02-29T00:50:42.842Z,-2.56
2024-02-29T00:53:11.253Z,-2.58
2024-02-29T00:55:42.553Z,-2.63
2024-02-29T00:58:11.857Z,-2.57
2024-02-29T01:00:40.600Z,-2.48
2024-02-29T01:03:09.363Z,-2.50
2024-02-29T01:05:39.963Z,-2.51
2024-02-29T01:08:08.987Z,-2.46
2024-02-29T01:10:37.578Z,-2.45
2024-02-29T01:13:06.360Z,-2.47
2024-02-29T01:15:34.764Z,-2.45
2024-02-29T01:18:07.116Z,-2.48
2024-02-29T01:20:35.863Z,-2.51
2024-02-29T01:23:06.120Z,-2.56
2024-02-29T01:25:34.534Z,-2.51
2024-02-29T01:28:03.160Z,-2.51
2024-02-29T01:30:31.750Z,-2.60
2024-02-29T01:33:00.279Z,-2.63
2024-02-29T01:35:28.711Z,-2.80
2024-02-29T01:37:57.079Z,-2.61
2024-02-29T01:40:27.194Z,-2.72
2024-02-29T01:42:55.565Z,-2.71
2024-02-29T01:45:24.105Z,-2.77
2024-02-29T01:47:52.485Z,-2.70
2024-02-29T01:50:22.033Z,-2.70
2024-02-29T01:52:50.836Z,-2.72
2024-02-29T01:55:19.364Z,-2.70
2024-02-29T01:57:49.481Z,-2.76
2024-02-29T02:00:19.205Z,-2.73
2024-02-29T02:02:48.068Z,-2.70
2024-02-29T02:05:17.293Z,-2.63
2024-02-29T02:07:46.995Z,-2.65
2024-02-29T02:10:15.635Z,-2.71
2024-02-29T02:12:44.534Z,-2.71
2024-02-29T02:15:15.214Z,-2.64
2024-02-29T02:17:44.422Z,-2.64
2024-02-29T02:20:19.320Z,-2.62
2024-02-29T02:22:47.697Z,-2.61
2024-02-29T02:25:16.061Z,-2.61
2024-02-29T02:27:45.211Z,-2.62
2024-02-29T02:30:14.171Z,-2.63
2024-02-29T02:32:42.641Z,-2.62
2024-02-29T02:35:11.439Z,-2.69
2024-02-29T02:37:42.163Z,-2.66
2024-02-29T02:40:11.983Z,-2.78
2024-02-29T02:42:40.680Z,-2.68
2024-02-29T02:45:10.493Z,-2.72
2024-02-29T02:47:38.983Z,-2.72
2024-02-29T02:50:08.293Z,-2.75
2024-02-29T02:52:36.756Z,-2.73
2024-02-29T02:55:07.532Z,-2.70
2024-02-29T02:57:35.891Z,-2.73
2024-02-29T03:00:05.208Z,-2.65
2024-02-29T03:02:34.387Z,-2.61
2024-02-29T03:05:02.760Z,-2.66
2024-02-29T03:07:31.867Z,-2.57
2024-02-29T03:10:00.452Z,-2.67
2024-02-29T03:12:30.608Z,-2.61
2024-02-29T03:14:58.975Z,-2.48
2024-02-29T03:17:27.646Z,-2.48
2024-02-29T03:19:56.100Z,-2.52
2024-02-29T03:22:30.485Z,-2.36
2024-02-29T03:24:59.145Z,-2.41
2024-02-29T03:27:31.670Z,-2.42
2024-02-29T03:30:00.674Z,-2.33
2024-02-29T03:32:29.452Z,-2.52
2024-02-29T03:34:57.863Z,-2.37
2024-02-29T03:37:26.716Z,-2.32
2024-02-29T03:39:56.066Z,-2.35
2024-02-29T03:42:24.744Z,-2.39
2024-02-29T03:44:57.832Z,-2.30
2024-02-29T03:47:26.605Z,-2.31
2024-02-29T03:49:54.972Z,-2.21
2024-02-29T03:52:26.340Z,-2.27
2024-02-29T03:54:54.947Z,-2.24
2024-02-29T03:57:23.625Z,-2.41
2024-02-29T03:59:52.534Z,-2.37
2024-02-29T04:02:22.292Z,-2.32
2024-02-29T04:04:50.693Z,-2.36
2024-02-29T04:07:19.151Z,-2.38
2024-02-29T04:09:47.563Z,-2.48
2024-02-29T04:12:16.045Z,-2.40
2024-02-29T04:14:44.487Z,-2.37
2024-02-29T04:17:12.877Z,-2.38
2024-02-29T04:19:44.866Z,-2.29
2024-02-29T04:22:13.324Z,-2.37
2024-02-29T04:24:41.978Z,-2.34
2024-02-29T04:27:10.576Z,-2.28
2024-02-29T04:29:39.157Z,-2.31
2024-02-29T04:32:08.337Z,-2.28
2024-02-29T04:34:36.674Z,-2.19
2024-02-29T04:37:06.715Z,-2.10
2024-02-29T04:39:35.238Z,-1.99
2024-02-29T04:42:04.779Z,-2.01
2024-02-29T04:44:33.116Z,-2.01
2024-02-29T04:47:01.452Z,-2.01
2024-02-29T04:49:29.935Z,-1.91
2024-02-29T04:52:00.613Z,-1.86
2024-02-29T04:54:30.390Z,-1.72
2024-02-29T04:56:58.799Z,-1.68
2024-02-29T04:59:27.295Z,-1.74
2024-02-29T05:01:55.786Z,-1.70
2024-02-29T05:04:24.259Z,-1.64
2024-02-29T05:06:54.783Z,-1.73
2024-02-29T05:09:23.221Z,-1.60
2024-02-29T05:11:53.032Z,-1.50
2024-02-29T05:14:21.375Z,-1.52
2024-02-29T05:16:49.845Z,-1.40
2024-02-29T05:19:18.402Z,-1.40
2024-02-29T05:21:52.825Z,-1.26
2024-02-29T05:24:21.280Z,-1.44
2024-02-29T05:26:50.337Z,-1.42
2024-02-29T05:29:20.220Z,-1.37
2024-02-29T05:31:53.291Z,-1.27
2024-02-29T05:34:24.871Z,-1.17
2024-02-29T05:36:54.417Z,-1.05
2024-02-29T05:39:23.030Z,-0.98
2024-02-29T05:41:51.401Z,-1.18
2024-02-29T05:44:21.246Z,-1.10
2024-02-29T05:46:49.656Z,-1.06
2024-02-29T05:49:18.343Z,-0.94
2024-02-29T05:51:47.107Z,-0.93
2024-02-29T05:54:15.547Z,-1.05
2024-02-29T05:56:44.044Z,-0.91
2024-02-29T05:59:13.906Z,-0.89
2024-02-29T06:01:43.794Z,-0.88
2024-02-29T06:04:12.236Z,-0.84
2024-02-29T06:06:40.685Z,-0.75
2024-02-29T06:09:13.782Z,-0.68
2024-02-29T06:11:42.370Z,-0.58
2024-02-29T06:14:11.803Z,-0.92
2024-02-29T06:16:40.249Z,-0.64
2024-02-29T06:19:10.064Z,-0.46
2024-02-29T06:21:38.627Z,-0.33
2024-02-29T06:24:07.238Z,-0.42
2024-02-29T06:26:37.336Z,-0.39
2024-02-29T06:29:05.897Z,-0.18
2024-02-29T06:31:36.540Z,-0.16
2024-02-29T06:34:05.183Z,0.01
2024-02-29T06:36:34.911Z,0.26
2024-02-29T06:39:05.560Z,0.29
2024-02-29T06:41:34.154Z,0.29
2024-02-29T06:44:02.635Z,0.41
2024-02-29T06:46:31.036Z,0.59
2024-02-29T06:48:59.446Z,0.55
2024-02-29T06:51:28.881Z,0.83
2024-02-29T06:53:58.928Z,0.91
2024-02-29T06:56:27.500Z,1.06
2024-02-29T06:58:56.024Z,1.19
2024-02-29T07:01:24.954Z,1.20
2024-02-29T07:03:53.481Z,1.20
2024-02-29T07:06:21.983Z,1.56
2024-02-29T07:08:50.315Z,1.58
2024-02-29T07:11:20.855Z,1.70
2024-02-29T07:13:49.430Z,1.65
2024-02-29T07:16:20.527Z,1.95
2024-02-29T07:18:49.227Z,1.80
2024-02-29T07:21:18.078Z,2.06
2024-02-29T07:23:46.478Z,2.12
2024-02-29T07:26:14.962Z,2.02
2024-02-29T07:28:44.742Z,2.12
2024-02-29T07:31:13.771Z,2.37
2024-02-29T07:33:42.265Z,2.46
2024-02-29T07:36:10.625Z,2.56
2024-02-29T07:38:38.968Z,2.60
2024-02-29T07:41:07.702Z,2.66
2024-02-29T07:43:36.152Z,2.64
2024-02-29T07:46:06.206Z,2.74
2024-02-29T07:48:34.631Z,2.82
2024-02-29T07:51:03.034Z,2.75
2024-02-29T07:53:31.636Z,2.46
2024-02-29T07:56:00.343Z,2.16
2024-02-29T07:58:29.818Z,2.23
2024-02-29T08:00:58.704Z,2.21
2024-02-29T08:03:28.547Z,2.49
2024-02-29T08:05:57.507Z,2.75
2024-02-29T08:08:25.895Z,2.54
2024-02-29T08:10:54.412Z,2.74
2024-02-29T08:13:22.822Z,3.04
2024-02-29T08:15:51.407Z,3.14
2024-02-29T08:18:20.144Z,3.07
2024-02-29T08:20:50.379Z,3.53
2024-02-29T08:23:18.890Z,3.43
2024-02-29T08:25:47.276Z,3.57
2024-02-29T08:28:15.738Z,3.22
2024-02-29T08:30:44.987Z,3.55
2024-02-29T08:33:13.903Z,3.36
2024-02-29T08:35:42.316Z,3.50
2024-02-29T08:38:12.116Z,3.57
2024-02-29T08:40:40.852Z,3.76
2024-02-29T08:43:09.341Z,3.73
2024-02-29T08:45:37.904Z,3.88
2024-02-29T08:48:06.754Z,3.83
2024-02-29T08:50:35.202Z,3.52
2024-02-29T08:53:03.529Z,3.68
2024-02-29T08:55:33.616Z,3.78
2024-02-29T08:58:02.032Z,3.60
2024-02-29T09:00:30.508Z,3.80
2024-02-29T09:02:59.082Z,3.75
2024-02-29T09:05:27.604Z,3.89
2024-02-29T09:07:56.053Z,3.62
2024-02-29T09:10:25.844Z,3.73
2024-02-29T09:12:56.020Z,3.70
2024-02-29T09:15:24.481Z,3.69
2024-02-29T09:17:53.439Z,3.71
2024-02-29T09:20:22.104Z,3.67
2024-02-29T09:22:50.837Z,4.04
2024-02-29T09:25:19.717Z,4.20
2024-02-29T09:27:48.401Z,3.90
2024-02-29T09:30:18.916Z,3.94
2024-02-29T09:32:50.010Z,4.15
2024-02-29T09:35:18.604Z,4.11
2024-02-29T09:37:47.261Z,4.03
2024-02-29T09:40:16.827Z,3.57
2024-02-29T09:42:47.300Z,3.92
2024-02-29T09:45:17.733Z,4.01
2024-02-29T09:47:46.257Z,4.04
2024-02-29T09:50:14.712Z,4.19
2024-02-29T09:52:44.882Z,4.22
2024-02-29T09:55:15.791Z,4.19
2024-02-29T09:57:44.385Z,3.92
2024-02-29T10:00:13.557Z,4.04
2024-02-29T10:02:43.810Z,4.08
2024-02-29T10:05:12.899Z,3.93
2024-02-29T10:07:44.333Z,4.07
2024-02-29T10:10:14.661Z,4.32
2024-02-29T10:12:44.624Z,4.58
2024-02-29T10:15:13.176Z,4.51
2024-02-29T10:17:43.451Z,4.49
2024-02-29T10:20:13.851Z,4.66
2024-02-29T10:22:48.430Z,4.57
2024-02-29T10:25:18.507Z,4.51
2024-02-29T10:27:47.057Z,4.60
2024-02-29T10:30:17.042Z,4.87
2024-02-29T10:32:47.591Z,4.79
2024-02-29T10:35:20.067Z,4.62
2024-02-29T10:37:49.065Z,4.47
2024-02-29T10:40:17.577Z,4.67
2024-02-29T10:42:52.101Z,4.46
2024-02-29T10:45:23.721Z,4.07
2024-02-29T10:47:59.844Z,4.37
2024-02-29T10:50:28.365Z,4.52
2024-02-29T10:53:10.055Z,5.04
2024-02-29T10:55:48.448Z,5.07
2024-02-29T10:58:24.901Z,5.06
2024-02-29T11:00:53.611Z,4.66
2024-02-29T11:03:24.212Z,4.62
2024-02-29T11:05:52.996Z,4.83
2024-02-29T11:08:21.910Z,4.72
2024-02-29T11:10:51.384Z,4.90
2024-02-29T11:13:21.090Z,4.68
2024-02-29T11:15:52.269Z,5.11
2024-02-29T11:18:26.049Z,4.88
2024-02-29T11:21:05.435Z,5.00
2024-02-29T11:23:37.630Z,5.04
2024-02-29T11:26:09.661Z,5.05
2024-02-29T11:28:43.296Z,5.05
2024-02-29T11:31:17.857Z,5.03
2024-02-29T11:33:48.616Z,5.03
2024-02-29T11:36:17.176Z,4.99
2024-02-29T11:38:46.004Z,5.19
2024-02-29T11:41:19.117Z,5.20
2024-02-29T11:43:48.531Z,5.38
2024-02-29T11:46:17.102Z,5.13
2024-02-29T11:48:50.084Z,5.07
2024-02-29T11:51:18.869Z,5.25
2024-02-29T11:53:47.265Z,5.17
2024-02-29T11:56:17.092Z,5.11
2024-02-29T11:58:46.461Z,4.93
2024-02-29T12:01:15.796Z,4.63
2024-02-29T12:03:46.400Z,4.59
2024-02-29T12:06:16.372Z,4.78
2024-02-29T12:08:46.096Z,4.78
2024-02-29T12:11:14.753Z,4.78
2024-02-29T12:13:43.728Z,4.66
2024-02-29T12:16:12.266Z,4.71
2024-02-29T12:18:40.742Z,5.02
2024-02-29T12:21:10.959Z,5.20
2024-02-29T12:23:42.468Z,5.09
2024-02-29T12:26:12.003Z,5.30
2024-02-29T12:28:46.294Z,4.61
2024-02-29T12:31:14.732Z,4.93
2024-02-29T12:33:44.812Z,5.21
2024-02-29T12:36:14.780Z,5.03
2024-02-29T12:38:45.155Z,5.15
2024-02-29T12:41:14.343Z,5.24
2024-02-29T12:43:48.116Z,4.95
2024-02-29T12:46:17.519Z,4.81
2024-02-29T12:48:47.449Z,4.74
2024-02-29T12:51:16.514Z,4.44
2024-02-29T12:53:46.280Z,4.54
2024-02-29T12:56:14.834Z,4.56
2024-02-29T12:58:48.421Z,4.75
2024-02-29T13:01:17.673Z,4.61
2024-02-29T13:03:46.219Z,4.58
2024-02-29T13:06:14.673Z,4.62
2024-02-29T13:08:43.046Z,4.69
2024-02-29T13:11:12.933Z,4.69
2024-02-29T13:13:40.561Z,4.73
2024-02-29T13:16:09.377Z,4.77
2024-02-29T13:18:38.057Z,4.45
2024-02-29T13:21:07.800Z,4.30
2024-02-29T13:23:36.270Z,4.66
2024-02-29T13:26:05.166Z,4.44
2024-02-29T13:28:35.121Z,4.34
2024-02-29T13:31:03.593Z,4.41
2024-02-29T13:33:32.061Z,4.35
2024-02-29T13:36:00.533Z,4.21
2024-02-29T13:38:29.059Z,4.20
2024-02-29T13:40:57.464Z,4.19
2024-02-29T13:43:26.264Z,4.10
2024-02-29T13:45:56.133Z,4.09
2024-02-29T13:48:24.623Z,4.11
2024-02-29T13:50:53.082Z,4.15
2024-02-29T13:53:21.525Z,4.10
2024-02-29T13:55:49.982Z,3.97
2024-02-29T13:58:18.495Z,3.95
2024-02-29T14:00:47.188Z,3.99
2024-02-29T14:03:17.057Z,4.03
2024-02-29T14:05:45.433Z,4.06
2024-02-29T14:08:13.796Z,4.01
2024-02-29T14:10:42.196Z,4.01
2024-02-29T14:13:12.925Z,3.91
2024-02-29T14:15:43.573Z,3.87
2024-02-29T14:18:14.072Z,3.84
2024-02-29T14:20:44.294Z,3.80
2024-02-29T14:23:12.635Z,3.76
2024-02-29T14:25:41.220Z,3.77
2024-02-29T14:28:09.907Z,3.65
2024-02-29T14:30:38.564Z,3.64
2024-02-29T14:33:07.250Z,3.63
2024-02-29T14:35:36.400Z,3.63
2024-02-29T14:38:06.917Z,3.49
2024-02-29T14:40:35.509Z,3.56
2024-02-29T14:43:05.915Z,3.53
2024-02-29T14:45:34.485Z,3.45
2024-02-29T14:48:03.271Z,3.38
2024-02-29T14:50:32.088Z,3.28
2024-02-29T14:53:00.560Z,3.20
2024-02-29T14:55:30.518Z,3.14
2024-02-29T14:57:59.632Z,3.19
2024-02-29T15:00:29.270Z,3.09
2024-02-29T15:02:58.169Z,2.99
2024-02-29T15:05:26.821Z,2.97
2024-02-29T15:07:57.302Z,3.00
2024-02-29T15:10:25.793Z,2.96
2024-02-29T15:12:55.737Z,2.89
2024-02-29T15:15:25.940Z,2.90
2024-02-29T15:17:55.852Z,2.90
2024-02-29T15:20:24.372Z,2.95
2024-02-29T15:22:52.835Z,2.80
2024-02-29T15:25:25.199Z,2.83
2024-02-29T15:27:57.891Z,2.79
2024-02-29T15:30:27.419Z,2.75
2024-02-29T15:32:56.289Z,2.76
2024-02-29T15:35:24.745Z,2.72
2024-02-29T15:37:53.197Z,2.66
2024-02-29T15:40:21.731Z,2.54
2024-02-29T15:43:16.929Z,2.54
2024-02-29T15:45:45.630Z,2.47
2024-02-29T15:48:14.104Z,2.43
2024-02-29T15:50:42.528Z,2.43
2024-02-29T15:53:10.916Z,2.42
2024-02-29T15:55:39.385Z,2.35
2024-02-29T15:58:08.684Z,2.33
2024-02-29T16:00:38.596Z,2.31
2024-02-29T16:03:07.521Z,2.29
2024-02-29T16:05:36.047Z,2.23
2024-02-29T16:08:07.597Z,2.21
2024-02-29T16:10:36.173Z,2.22
2024-02-29T16:13:05.973Z,2.24
2024-02-29T16:15:34.593Z,2.24
2024-02-29T16:18:04.994Z,2.31
2024-02-29T16:20:33.490Z,2.41
2024-02-29T16:23:01.901Z,2.38
2024-02-29T16:25:30.507Z,2.35
2024-02-29T16:28:00.305Z,2.34
2024-02-29T16:30:30.313Z,2.35
2024-02-29T16:32:59.020Z,2.34
2024-02-29T16:35:29.269Z,2.34
2024-02-29T16:37:59.543Z,2.38
2024-02-29T16:40:29.406Z,2.43
2024-02-29T16:42:57.954Z,2.49
2024-02-29T16:45:26.571Z,2.39
2024-02-29T16:47:55.172Z,2.52
2024-02-29T16:50:24.021Z,2.51
2024-02-29T16:52:54.956Z,2.43
2024-02-29T16:55:23.454Z,2.32
2024-02-29T16:57:52.197Z,2.33
2024-02-29T17:00:23.755Z,2.30
2024-02-29T17:02:52.497Z,2.41
2024-02-29T17:05:23.280Z,2.44
2024-02-29T17:07:51.645Z,2.35
2024-02-29T17:10:21.748Z,2.34
2024-02-29T17:12:50.470Z,2.40
2024-02-29T17:15:18.938Z,2.46
2024-02-29T17:17:47.463Z,2.47
2024-02-29T17:20:16.132Z,2.43
2024-02-29T17:22:47.718Z,2.39
2024-02-29T17:25:16.301Z,2.36
2024-02-29T17:27:46.471Z,2.34
2024-02-29T17:30:17.006Z,2.35
2024-02-29T17:32:48.533Z,2.39
2024-02-29T17:35:17.474Z,2.39
2024-02-29T17:37:46.031Z,2.37
2024-02-29T17:40:14.674Z,2.39
2024-02-29T17:42:43.116Z,2.42
2024-02-29T17:45:13.254Z,2.36
2024-02-29T17:47:43.524Z,2.30
2024-02-29T17:50:17.052Z,2.31
2024-02-29T17:52:45.696Z,2.25
2024-02-29T17:55:16.100Z,2.33
2024-02-29T17:57:44.912Z,2.32
2024-02-29T18:00:15.991Z,2.18
2024-02-29T18:02:44.750Z,2.13
2024-02-29T18:05:15.039Z,2.10
2024-02-29T18:07:50.831Z,2.20
2024-02-29T18:10:24.259Z,2.17
2024-02-29T18:12:52.825Z,2.24
2024-02-29T18:15:22.723Z,2.22
2024-02-29T18:17:51.979Z,2.23
2024-02-29T18:20:23.524Z,2.26
2024-02-29T18:22:53.549Z,2.25
2024-02-29T18:25:22.276Z,2.19
2024-02-29T18:27:50.847Z,2.21
2024-02-29T18:30:19.400Z,2.24
2024-02-29T18:32:49.203Z,2.15
2024-02-29T18:35:17.950Z,2.20
2024-02-29T18:37:46.315Z,2.08
2024-02-29T18:40:15.139Z,2.06
2024-02-29T18:42:43.931Z,2.08
2024-02-29T18:45:13.937Z,2.07
2024-02-29T18:47:42.742Z,1.98
2024-02-29T18:50:13.045Z,1.92
2024-02-29T18:52:41.491Z,1.92
2024-02-29T18:55:10.444Z,1.86
2024-02-29T18:57:38.944Z,1.85
2024-02-29T19:00:09.800Z,1.90
2024-02-29T19:02:38.213Z,1.93
2024-02-29T19:05:07.303Z,1.98
2024-02-29T19:07:37.522Z,1.97
2024-02-29T19:10:08.045Z,1.98
2024-02-29T19:12:37.714Z,1.99
2024-02-29T19:15:08.579Z,2.03
2024-02-29T19:17:37.143Z,1.94
2024-02-29T19:20:07.673Z,1.94
2024-02-29T19:22:37.959Z,1.84
2024-02-29T19:25:07.858Z,1.74
2024-02-29T19:27:36.279Z,1.77
2024-02-29T19:30:06.942Z,1.73
2024-02-29T19:32:35.363Z,1.78
2024-02-29T19:35:04.095Z,1.78
2024-02-29T19:37:32.849Z,1.79
2024-02-29T19:40:02.963Z,1.76
2024-02-29T19:42:34.900Z,1.80
2024-02-29T19:45:05.043Z,1.98
2024-02-29T19:47:33.731Z,1.86
2024-02-29T19:50:02.776Z,1.98
2024-02-29T19:52:35.651Z,1.89
2024-02-29T19:55:11.532Z,1.89
2024-02-29T19:57:42.698Z,1.92
2024-02-29T20:00:17.531Z,1.90
2024-02-29T20:02:48.465Z,1.83
2024-02-29T20:05:17.314Z,1.86
2024-02-29T20:07:45.790Z,1.81
2024-02-29T20:10:15.874Z,1.85
2024-02-29T20:12:57.042Z,1.79
2024-02-29T20:15:25.605Z,1.75
2024-02-29T20:17:54.108Z,1.72
2024-02-29T20:20:24.003Z,1.66
2024-02-29T20:22:59.754Z,1.58
2024-02-29T20:25:30.496Z,1.54
2024-02-29T20:27:59.478Z,1.48
2024-02-29T20:30:28.858Z,1.41
2024-02-29T20:32:57.454Z,1.40
2024-02-29T20:35:26.226Z,1.49
2024-02-29T20:37:55.245Z,1.45
2024-02-29T20:40:25.294Z,1.39
2024-02-29T20:42:56.445Z,1.52
2024-02-29T20:45:25.908Z,1.53
2024-02-29T20:47:54.429Z,1.43
2024-02-29T20:50:23.806Z,1.43
2024-02-29T20:52:52.314Z,1.48
2024-02-29T20:55:20.965Z,1.60
2024-02-29T20:57:49.483Z,1.50
2024-02-29T21:00:20.008Z,1.43
2024-02-29T21:02:48.497Z,1.36
2024-02-29T21:05:17.184Z,1.32
2024-02-29T21:07:45.718Z,1.27
2024-02-29T21:10:14.276Z,1.33
2024-02-29T21:12:43.199Z,1.28
2024-02-29T21:15:12.364Z,1.29
2024-02-29T21:17:42.334Z,1.21
2024-02-29T21:20:12.127Z,1.23
2024-02-29T21:23:04.616Z,1.27
2024-02-29T21:25:33.481Z,1.25
2024-02-29T21:28:02.046Z,1.24
2024-02-29T21:30:30.614Z,1.20
2024-02-29T21:33:00.748Z,1.19
2024-02-29T21:35:29.346Z,1.29
2024-02-29T21:37:57.825Z,1.33
2024-02-29T21:40:26.405Z,1.27
2024-02-29T21:42:55.017Z,1.35
2024-02-29T21:45:23.534Z,1.33
2024-02-29T21:47:51.937Z,1.42
2024-02-29T21:50:22.961Z,1.31
2024-02-29T21:52:53.454Z,1.36
2024-02-29T21:55:21.925Z,1.34
2024-02-29T21:57:50.507Z,1.47
2024-02-29T22:03:26.043Z,1.27
2024-02-29T22:05:55.963Z,1.36
2024-02-29T22:08:24.379Z,1.26
2024-02-29T22:10:52.954Z,1.39
2024-02-29T22:13:21.453Z,1.43
2024-02-29T22:15:50.103Z,1.36
2024-02-29T22:18:18.688Z,1.39
2024-02-29T22:20:47.525Z,1.32
2024-02-29T22:23:17.519Z,1.35
2024-02-29T22:25:45.927Z,1.37
2024-02-29T22:28:14.560Z,1.44
2024-02-29T22:30:43.440Z,1.56
2024-02-29T22:33:11.935Z,1.51
2024-02-29T22:35:40.416Z,1.52
2024-02-29T22:38:09.088Z,1.57
2024-02-29T22:40:39.103Z,1.55
2024-02-29T22:43:07.557Z,1.57
2024-02-29T22:45:35.937Z,1.52
2024-02-29T22:48:04.626Z,1.39
2024-02-29T22:50:33.003Z,1.47
2024-02-29T22:53:01.869Z,1.39
2024-02-29T22:55:30.755Z,1.39
2024-02-29T22:58:00.586Z,1.49
2024-02-29T23:00:31.942Z,1.50
2024-02-29T23:03:00.519Z,1.39
2024-02-29T23:05:28.930Z,1.32
2024-02-29T23:07:57.478Z,1.36
2024-02-29T23:10:27.305Z,1.37
2024-02-29T23:12:56.265Z,1.37
2024-02-29T23:15:26.043Z,1.38
2024-02-29T23:17:56.878Z,1.37
2024-02-29T23:20:25.468Z,1.34
2024-02-29T23:22:54.294Z,1.33
2024-02-29T23:25:25.167Z,1.32
2024-02-29T23:27:54.591Z,1.41
2024-02-29T23:30:23.350Z,1.40
2024-02-29T23:32:53.277Z,1.37
2024-02-29T23:35:22.056Z,1.33
2024-02-29T23:37:50.772Z,1.25
2024-02-29T23:40:19.656Z,1.19
2024-02-29T23:42:48.995Z,1.19
2024-02-29T23:45:17.904Z,1.19
2024-02-29T23:47:46.464Z,1.17
2024-02-29T23:50:16.488Z,1.22
2024-02-29T23:52:47.033Z,1.25
2024-02-29T23:55:15.686Z,1.25
2024-02-29T23:57:44.525Z,1.27
